LHSM/SOB METAR and TAF weather

Enter ICAO airport designator
Station Type Date Time Source
LHSM METAR 2020/04/06 11:15 UTC NOAA

LHSM 061115Z AUTO 13011KT 090V170 9000 NCD 18/M04 Q1031


Station Type Date Time Source
LHSM Decoded METAR 2020/04/06 11:15 UTC NOAA

Station name not available
Apr 06, 2020 - 07:15 AM EDT / 2020.04.06 1115 UTC
Wind: from the SE (130 degrees) at 13 MPH (11 KT) (direction variable):0
Visibility: 5 mile(s):0
Temperature: 64 F (18 C)
Dew Point: 24 F (-4 C)
Relative Humidity: 22%
Pressure (altimeter): 30.45 in. Hg (1031 hPa)
ob: LHSM 061115Z AUTO 13011KT 090V170 9000 NCD 18/M04 Q1031
cycle: 11

Station Type Date Time Source
LHSM TAF UTC NOAA

Error!

Example: see airport list